sensor_id;sensor_type;location;lat;lon;timestamp;pressure;altitude;pressure_sealevel;temperature;humidity
12101;BME280;6113;42.678;23.334;2022-08-21T00:01:39;94258.97;;;22.34;100.00
12101;BME280;6113;42.678;23.334;2022-08-21T00:04:06;94261.00;;;22.33;100.00
12101;BME280;6113;42.678;23.334;2022-08-21T00:06:34;94231.31;;;22.21;100.00
12101;BME280;6113;42.678;23.334;2022-08-21T00:09:04;94252.69;;;22.33;100.00
12101;BME280;6113;42.678;23.334;2022-08-21T00:11:32;94236.47;;;22.17;100.00
12101;BME280;6113;42.678;23.334;2022-08-21T00:13:59;94252.59;;;22.26;100.00
12101;BME280;6113;42.678;23.334;2022-08-21T00:16:25;94244.50;;;22.28;100.00
12101;BME280;6113;42.678;23.334;2022-08-21T00:18:52;94227.97;;;22.15;100.00
12101;BME280;6113;42.678;23.334;2022-08-21T00:21:19;94240.78;;;22.25;100.00
12101;BME280;6113;42.678;23.334;2022-08-21T00:23:47;94214.25;;;22.10;100.00
12101;BME280;6113;42.678;23.334;2022-08-21T00:26:15;94233.75;;;22.24;100.00
12101;BME280;6113;42.678;23.334;2022-08-21T00:28:42;94233.00;;;22.24;100.00
12101;BME280;6113;42.678;23.334;2022-08-21T00:31:11;94232.47;;;22.25;100.00
12101;BME280;6113;42.678;23.334;2022-08-21T00:33:38;94226.91;;;22.25;100.00
12101;BME280;6113;42.678;23.334;2022-08-21T00:36:05;94223.94;;;22.23;100.00
12101;BME280;6113;42.678;23.334;2022-08-21T00:38:32;94224.16;;;22.25;100.00
12101;BME280;6113;42.678;23.334;2022-08-21T00:41:01;94230.97;;;22.24;100.00
12101;BME280;6113;42.678;23.334;2022-08-21T00:43:32;94239.28;;;22.24;100.00
12101;BME280;6113;42.678;23.334;2022-08-21T00:46:00;94235.97;;;22.26;100.00
12101;BME280;6113;42.678;23.334;2022-08-21T00:48:28;94236.72;;;22.26;100.00
12101;BME280;6113;42.678;23.334;2022-08-21T00:50:58;94240.78;;;22.25;100.00
12101;BME280;6113;42.678;23.334;2022-08-21T00:53:27;94237.59;;;22.21;100.00
12101;BME280;6113;42.678;23.334;2022-08-21T00:55:54;94251.88;;;22.25;100.00
12101;BME280;6113;42.678;23.334;2022-08-21T00:58:22;94230.22;;;22.24;100.00
12101;BME280;6113;42.678;23.334;2022-08-21T01:00:51;94215.91;;;22.13;100.00
12101;BME280;6113;42.678;23.334;2022-08-21T01:03:21;94226.72;;;22.23;100.00
12101;BME280;6113;42.678;23.334;2022-08-21T01:05:48;94217.09;;;22.24;100.00
12101;BME280;6113;42.678;23.334;2022-08-21T01:08:15;94221.53;;;22.27;100.00
12101;BME280;6113;42.678;23.334;2022-08-21T01:10:44;94214.88;;;22.23;100.00
12101;BME280;6113;42.678;23.334;2022-08-21T01:13:12;94220.81;;;22.27;100.00
12101;BME280;6113;42.678;23.334;2022-08-21T01:15:46;94214.69;;;22.21;100.00
12101;BME280;6113;42.678;23.334;2022-08-21T01:18:16;94207.09;;;22.21;100.00
12101;BME280;6113;42.678;23.334;2022-08-21T01:23:13;94215.41;;;22.21;100.00
12101;BME280;6113;42.678;23.334;2022-08-21T01:25:40;94211.56;;;22.24;100.00
12101;BME280;6113;42.678;23.334;2022-08-21T01:28:11;94194.50;;;22.13;100.00
12101;BME280;6113;42.678;23.334;2022-08-21T01:30:40;94205.09;;;22.22;100.00
12101;BME280;6113;42.678;23.334;2022-08-21T01:33:08;94197.50;;;22.22;100.00
12101;BME280;6113;42.678;23.334;2022-08-21T01:35:35;94203.81;;;22.23;100.00
12101;BME280;6113;42.678;23.334;2022-08-21T01:38:02;94203.03;;;22.22;100.00
12101;BME280;6113;42.678;23.334;2022-08-21T01:40:31;94215.41;;;22.21;100.00
12101;BME280;6113;42.678;23.334;2022-08-21T01:42:57;94212.13;;;21.95;100.00
12101;BME280;6113;42.678;23.334;2022-08-21T01:45:24;94212.13;;;22.23;100.00
12101;BME280;6113;42.678;23.334;2022-08-21T01:47:51;94217.66;;;22.23;100.00
12101;BME280;6113;42.678;23.334;2022-08-21T01:50:20;94206.91;;;22.19;100.00
12101;BME280;6113;42.678;23.334;2022-08-21T01:52:47;94220.75;;;22.19;100.00
12101;BME280;6113;42.678;23.334;2022-08-21T01:55:15;94205.78;;;22.15;100.00
12101;BME280;6113;42.678;23.334;2022-08-21T01:57:45;94207.81;;;22.15;100.00
12101;BME280;6113;42.678;23.334;2022-08-21T02:00:14;94196.28;;;22.03;100.00
12101;BME280;6113;42.678;23.334;2022-08-21T02:02:42;94199.63;;;22.02;100.00
12101;BME280;6113;42.678;23.334;2022-08-21T02:05:11;94199.06;;;22.03;100.00
12101;BME280;6113;42.678;23.334;2022-08-21T02:07:41;94233.66;;;22.10;100.00
12101;BME280;6113;42.678;23.334;2022-08-21T02:10:10;94232.38;;;22.11;100.00
12101;BME280;6113;42.678;23.334;2022-08-21T02:12:37;94223.66;;;22.07;100.00
12101;BME280;6113;42.678;23.334;2022-08-21T02:15:07;94207.31;;;21.96;100.00
12101;BME280;6113;42.678;23.334;2022-08-21T02:17:40;94143.28;;;21.51;100.00
12101;BME280;6113;42.678;23.334;2022-08-21T02:20:08;94235.16;;;22.11;100.00
12101;BME280;6113;42.678;23.334;2022-08-21T02:22:35;94230.53;;;22.13;100.00
12101;BME280;6113;42.678;23.334;2022-08-21T02:25:03;94215.50;;;22.01;100.00
12101;BME280;6113;42.678;23.334;2022-08-21T02:27:37;94231.84;;;22.12;100.00
12101;BME280;6113;42.678;23.334;2022-08-21T02:30:07;94251.97;;;22.13;100.00
12101;BME280;6113;42.678;23.334;2022-08-21T02:32:34;94238.09;;;22.13;100.00
12101;BME280;6113;42.678;23.334;2022-08-21T02:35:01;94242.56;;;22.16;100.00
12101;BME280;6113;42.678;23.334;2022-08-21T02:37:28;94243.72;;;22.20;100.00
12101;BME280;6113;42.678;23.334;2022-08-21T02:39:55;94195.47;;;21.88;100.00
12101;BME280;6113;42.678;23.334;2022-08-21T02:42:22;94234.47;;;22.25;100.00
12101;BME280;6113;42.678;23.334;2022-08-21T02:44:49;94237.47;;;22.27;100.00
12101;BME280;6113;42.678;23.334;2022-08-21T02:47:17;94239.50;;;22.26;100.00
12101;BME280;6113;42.678;23.334;2022-08-21T02:49:44;94215.53;;;22.09;100.00
12101;BME280;6113;42.678;23.334;2022-08-21T02:52:11;94233.19;;;22.26;100.00
12101;BME280;6113;42.678;23.334;2022-08-21T02:54:37;94237.81;;;22.23;100.00
12101;BME280;6113;42.678;23.334;2022-08-21T02:57:04;94233.94;;;22.26;100.00
12101;BME280;6113;42.678;23.334;2022-08-21T02:59:31;94204.81;;;22.05;100.00
12101;BME280;6113;42.678;23.334;2022-08-21T03:01:58;94230.63;;;22.28;100.00
12101;BME280;6113;42.678;23.334;2022-08-21T03:04:26;94213.31;;;22.07;100.00
12101;BME280;6113;42.678;23.334;2022-08-21T03:06:53;94242.69;;;22.30;100.00
12101;BME280;6113;42.678;23.334;2022-08-21T03:09:20;94248.44;;;22.32;100.00
12101;BME280;6113;42.678;23.334;2022-08-21T03:11:46;94241.94;;;22.30;100.00
12101;BME280;6113;42.678;23.334;2022-08-21T03:14:13;94246.19;;;22.31;100.00
12101;BME280;6113;42.678;23.334;2022-08-21T03:16:40;94223.88;;;22.16;100.00
12101;BME280;6113;42.678;23.334;2022-08-21T03:19:07;94225.63;;;22.26;100.00
12101;BME280;6113;42.678;23.334;2022-08-21T03:21:35;94236.47;;;22.17;100.00
12101;BME280;6113;42.678;23.334;2022-08-21T03:24:03;94228.06;;;22.02;100.00
12101;BME280;6113;42.678;23.334;2022-08-21T03:26:30;94250.88;;;22.16;100.00
12101;BME280;6113;42.678;23.334;2022-08-21T03:28:57;94244.06;;;22.17;100.00
12101;BME280;6113;42.678;23.334;2022-08-21T03:31:24;94239.06;;;22.15;100.00
12101;BME280;6113;42.678;23.334;2022-08-21T03:33:54;94219.16;;;21.96;100.00
12101;BME280;6113;42.678;23.334;2022-08-21T03:36:21;94235.69;;;22.09;100.00
12101;BME280;6113;42.678;23.334;2022-08-21T03:38:50;94239.22;;;22.10;100.00
12101;BME280;6113;42.678;23.334;2022-08-21T03:41:17;94225.28;;;22.02;100.00
12101;BME280;6113;42.678;23.334;2022-08-21T03:43:44;94234.75;;;22.07;100.00
12101;BME280;6113;42.678;23.334;2022-08-21T03:46:10;94227.72;;;22.06;100.00
12101;BME280;6113;42.678;23.334;2022-08-21T03:48:37;94229.75;;;22.05;100.00
12101;BME280;6113;42.678;23.334;2022-08-21T03:51:05;94188.03;;;21.83;100.00
12101;BME280;6113;42.678;23.334;2022-08-21T03:53:32;94215.47;;;21.94;100.00
12101;BME280;6113;42.678;23.334;2022-08-21T03:56:01;94226.13;;;21.90;100.00
12101;BME280;6113;42.678;23.334;2022-08-21T03:58:29;94245.06;;;21.99;100.00
12101;BME280;6113;42.678;23.334;2022-08-21T04:00:58;94258.19;;;21.98;100.00
12101;BME280;6113;42.678;23.334;2022-08-21T04:03:26;94111.38;;;21.02;100.00
12101;BME280;6113;42.678;23.334;2022-08-21T04:05:53;94258.88;;;21.91;100.00
12101;BME280;6113;42.678;23.334;2022-08-21T04:08:20;94263.88;;;21.93;100.00
12101;BME280;6113;42.678;23.334;2022-08-21T04:10:49;94246.44;;;21.85;100.00
12101;BME280;6113;42.678;23.334;2022-08-21T04:13:18;94252.03;;;21.92;100.00
12101;BME280;6113;42.678;23.334;2022-08-21T04:15:45;94242.75;;;21.82;100.00
12101;BME280;6113;42.678;23.334;2022-08-21T04:18:12;94258.13;;;21.91;100.00
12101;BME280;6113;42.678;23.334;2022-08-21T04:20:40;94251.63;;;21.88;100.00
12101;BME280;6113;42.678;23.334;2022-08-21T04:23:07;94247.53;;;21.82;100.00
12101;BME280;6113;42.678;23.334;2022-08-21T04:25:34;94240.69;;;21.83;100.00
12101;BME280;6113;42.678;23.334;2022-08-21T04:28:02;94251.78;;;21.83;100.00
12101;BME280;6113;42.678;23.334;2022-08-21T04:30:31;94254.00;;;21.84;100.00
12101;BME280;6113;42.678;23.334;2022-08-21T04:32:58;94254.56;;;21.83;100.00
12101;BME280;6113;42.678;23.334;2022-08-21T04:35:27;94251.78;;;21.83;100.00
12101;BME280;6113;42.678;23.334;2022-08-21T04:37:54;94254.56;;;21.83;100.00
12101;BME280;6113;42.678;23.334;2022-08-21T04:40:23;94257.53;;;21.85;100.00
12101;BME280;6113;42.678;23.334;2022-08-21T04:42:52;94250.16;;;21.87;100.00
12101;BME280;6113;42.678;23.334;2022-08-21T04:45:22;94239.03;;;21.80;100.00
12101;BME280;6113;42.678;23.334;2022-08-21T04:47:52;94250.84;;;21.80;100.00
12101;BME280;6113;42.678;23.334;2022-08-21T04:50:19;94224.91;;;21.70;100.00
12101;BME280;6113;42.678;23.334;2022-08-21T04:52:48;94250.50;;;21.84;100.00
12101;BME280;6113;42.678;23.334;2022-08-21T04:55:16;94252.53;;;21.83;100.00
12101;BME280;6113;42.678;23.334;2022-08-21T04:57:45;94242.78;;;21.90;100.00
12101;BME280;6113;42.678;23.334;2022-08-21T05:00:13;94216.31;;;21.81;100.00
12101;BME280;6113;42.678;23.334;2022-08-21T05:02:41;94250.59;;;21.99;100.00
12101;BME280;6113;42.678;23.334;2022-08-21T05:05:10;94236.69;;;21.91;100.00
12101;BME280;6113;42.678;23.334;2022-08-21T05:07:37;94245.53;;;22.18;100.00
12101;BME280;6113;42.678;23.334;2022-08-21T05:10:05;94240.97;;;22.27;100.00
12101;BME280;6113;42.678;23.334;2022-08-21T05:12:34;94252.34;;;22.37;100.00
12101;BME280;6113;42.678;23.334;2022-08-21T05:15:01;94226.44;;;22.34;100.00
12101;BME280;6113;42.678;23.334;2022-08-21T05:17:28;94251.50;;;22.57;100.00
12101;BME280;6113;42.678;23.334;2022-08-21T05:19:55;94260.22;;;22.68;100.00
12101;BME280;6113;42.678;23.334;2022-08-21T05:22:24;94201.69;;;22.44;100.00
12101;BME280;6113;42.678;23.334;2022-08-21T05:24:51;94239.53;;;22.69;100.00
12101;BME280;6113;42.678;23.334;2022-08-21T05:27:18;94252.88;;;22.78;100.00
12101;BME280;6113;42.678;23.334;2022-08-21T05:29:45;94230.66;;;22.78;100.00
12101;BME280;6113;42.678;23.334;2022-08-21T05:32:13;94225.84;;;22.79;100.00
12101;BME280;6113;42.678;23.334;2022-08-21T05:34:40;94254.41;;;22.94;100.00
12101;BME280;6113;42.678;23.334;2022-08-21T05:37:07;94245.00;;;22.97;100.00
12101;BME280;6113;42.678;23.334;2022-08-21T05:39:38;94251.50;;;23.07;100.00
12101;BME280;6113;42.678;23.334;2022-08-21T05:42:05;94243.38;;;23.24;99.80
12101;BME280;6113;42.678;23.334;2022-08-21T05:44:32;94235.84;;;23.39;98.97
12101;BME280;6113;42.678;23.334;2022-08-21T05:47:03;94238.97;;;23.43;96.09
12101;BME280;6113;42.678;23.334;2022-08-21T05:49:30;94213.59;;;23.32;96.21
12101;BME280;6113;42.678;23.334;2022-08-21T05:51:56;94222.84;;;23.42;96.65
12101;BME280;6113;42.678;23.334;2022-08-21T05:54:23;94229.91;;;23.43;96.61
12101;BME280;6113;42.678;23.334;2022-08-21T05:56:52;94227.47;;;23.47;97.04
12101;BME280;6113;42.678;23.334;2022-08-21T05:59:18;94215.78;;;23.33;96.17
12101;BME280;6113;42.678;23.334;2022-08-21T06:01:45;94231.19;;;23.34;95.60
12101;BME280;6113;42.678;23.334;2022-08-21T06:04:12;94233.22;;;23.34;97.30
12101;BME280;6113;42.678;23.334;2022-08-21T06:06:57;94244.34;;;23.34;97.00
12101;BME280;6113;42.678;23.334;2022-08-21T06:09:24;94239.69;;;23.29;96.15
12101;BME280;6113;42.678;23.334;2022-08-21T06:11:52;94236.19;;;23.28;95.08
12101;BME280;6113;42.678;23.334;2022-08-21T06:14:19;94232.47;;;23.33;94.99
12101;BME280;6113;42.678;23.334;2022-08-21T06:16:46;94231.56;;;23.61;95.00
12101;BME280;6113;42.678;23.334;2022-08-21T06:19:13;94237.72;;;23.82;94.49
12101;BME280;6113;42.678;23.334;2022-08-21T06:21:40;94221.19;;;23.91;92.82
12101;BME280;6113;42.678;23.334;2022-08-21T06:24:07;94234.69;;;24.09;90.05
12101;BME280;6113;42.678;23.334;2022-08-21T06:26:33;94241.53;;;24.23;89.06
12101;BME280;6113;42.678;23.334;2022-08-21T06:29:02;94225.16;;;24.42;88.31
12101;BME280;6113;42.678;23.334;2022-08-21T06:31:28;94238.53;;;24.36;86.06
12101;BME280;6113;42.678;23.334;2022-08-21T06:33:55;94241.66;;;24.55;87.16
12101;BME280;6113;42.678;23.334;2022-08-21T06:36:23;94227.66;;;24.70;88.17
12101;BME280;6113;42.678;23.334;2022-08-21T06:38:49;94239.88;;;24.82;87.17
12101;BME280;6113;42.678;23.334;2022-08-21T06:41:16;94244.25;;;25.00;88.05
12101;BME280;6113;42.678;23.334;2022-08-21T06:43:43;94237.09;;;25.21;87.19
12101;BME280;6113;42.678;23.334;2022-08-21T06:46:12;94230.69;;;25.36;83.00
12101;BME280;6113;42.678;23.334;2022-08-21T06:48:38;94237.47;;;25.49;82.63
12101;BME280;6113;42.678;23.334;2022-08-21T06:51:05;94238.28;;;25.67;80.16
12101;BME280;6113;42.678;23.334;2022-08-21T06:53:32;94232.59;;;25.82;78.71
12101;BME280;6113;42.678;23.334;2022-08-21T06:55:59;94228.78;;;25.94;76.72
12101;BME280;6113;42.678;23.334;2022-08-21T06:58:26;94223.69;;;26.00;76.14
12101;BME280;6113;42.678;23.334;2022-08-21T07:00:54;94248.19;;;26.26;76.03
12101;BME280;6113;42.678;23.334;2022-08-21T07:03:25;94249.50;;;26.42;75.30
12101;BME280;6113;42.678;23.334;2022-08-21T07:05:53;94247.56;;;26.52;72.52
12101;BME280;6113;42.678;23.334;2022-08-21T07:08:20;94244.44;;;26.65;70.72
12101;BME280;6113;42.678;23.334;2022-08-21T07:10:48;94236.84;;;26.75;70.77
12101;BME280;6113;42.678;23.334;2022-08-21T07:13:15;94235.47;;;26.83;68.95
12101;BME280;6113;42.678;23.334;2022-08-21T07:15:42;94240.28;;;26.83;70.12
12101;BME280;6113;42.678;23.334;2022-08-21T07:18:10;94230.78;;;26.86;69.59
12101;BME280;6113;42.678;23.334;2022-08-21T07:20:40;94252.47;;;27.12;70.75
12101;BME280;6113;42.678;23.334;2022-08-21T07:23:09;94257.56;;;27.06;70.41
12101;BME280;6113;42.678;23.334;2022-08-21T07:25:37;94249.03;;;26.87;70.23
12101;BME280;6113;42.678;23.334;2022-08-21T07:28:04;94237.38;;;26.64;70.58
12101;BME280;6113;42.678;23.334;2022-08-21T07:30:32;94248.31;;;26.52;72.02
12101;BME280;6113;42.678;23.334;2022-08-21T07:32:58;94215.00;;;26.30;72.07
12101;BME280;6113;42.678;23.334;2022-08-21T07:35:25;94233.41;;;26.33;72.28
12101;BME280;6113;42.678;23.334;2022-08-21T07:37:54;94225.50;;;26.22;72.59
12101;BME280;6113;42.678;23.334;2022-08-21T07:40:21;94222.75;;;26.39;72.31
12101;BME280;6113;42.678;23.334;2022-08-21T07:42:49;94221.19;;;26.28;71.94
12101;BME280;6113;42.678;23.334;2022-08-21T07:45:21;94210.81;;;26.05;73.71
12101;BME280;6113;42.678;23.334;2022-08-21T07:47:50;94234.63;;;26.06;73.87
12101;BME280;6113;42.678;23.334;2022-08-21T07:50:17;94212.09;;;25.62;75.03
12101;BME280;6113;42.678;23.334;2022-08-21T07:52:45;94207.66;;;26.01;75.81
12101;BME280;6113;42.678;23.334;2022-08-21T07:55:17;94220.13;;;26.41;74.16
12101;BME280;6113;42.678;23.334;2022-08-21T07:57:44;94214.19;;;26.71;71.75
12101;BME280;6113;42.678;23.334;2022-08-21T08:00:13;94212.53;;;26.68;71.55
12101;BME280;6113;42.678;23.334;2022-08-21T08:02:40;94212.25;;;26.64;72.93
12101;BME280;6113;42.678;23.334;2022-08-21T08:05:11;94214.69;;;26.60;70.98
12101;BME280;6113;42.678;23.334;2022-08-21T08:07:38;94222.66;;;26.46;71.39
12101;BME280;6113;42.678;23.334;2022-08-21T08:10:06;94229.13;;;26.32;71.09
12101;BME280;6113;42.678;23.334;2022-08-21T08:12:35;94225.84;;;26.26;72.58
12101;BME280;6113;42.678;23.334;2022-08-21T08:15:03;94197.91;;;25.92;73.06
12101;BME280;6113;42.678;23.334;2022-08-21T08:17:30;94225.56;;;25.98;73.24
12101;BME280;6113;42.678;23.334;2022-08-21T08:19:59;94220.50;;;25.79;72.21
12101;BME280;6113;42.678;23.334;2022-08-21T08:22:27;94220.56;;;25.72;72.84
12101;BME280;6113;42.678;23.334;2022-08-21T08:24:55;94221.66;;;25.76;72.92
12101;BME280;6113;42.678;23.334;2022-08-21T08:27:22;94225.28;;;25.62;75.08
12101;BME280;6113;42.678;23.334;2022-08-21T08:29:50;94194.91;;;25.49;74.48
12101;BME280;6113;42.678;23.334;2022-08-21T08:32:17;94209.97;;;25.70;73.18
12101;BME280;6113;42.678;23.334;2022-08-21T08:34:44;94226.66;;;25.78;72.88
12101;BME280;6113;42.678;23.334;2022-08-21T08:37:12;94223.75;;;25.68;74.05
12101;BME280;6113;42.678;23.334;2022-08-21T08:39:39;94223.94;;;25.70;74.08
12101;BME280;6113;42.678;23.334;2022-08-21T08:42:08;94224.56;;;25.61;74.02
12101;BME280;6113;42.678;23.334;2022-08-21T08:44:36;94229.13;;;25.18;74.24
12101;BME280;6113;42.678;23.334;2022-08-21T08:47:05;94225.28;;;25.38;73.55
12101;BME280;6113;42.678;23.334;2022-08-21T08:49:37;94211.56;;;25.56;73.82
12101;BME280;6113;42.678;23.334;2022-08-21T08:52:09;94210.72;;;25.71;72.67
12101;BME280;6113;42.678;23.334;2022-08-21T08:54:42;94203.00;;;25.86;73.04
12101;BME280;6113;42.678;23.334;2022-08-21T08:57:18;94215.81;;;26.23;71.67
12101;BME280;6113;42.678;23.334;2022-08-21T08:59:48;94209.66;;;26.25;70.45
12101;BME280;6113;42.678;23.334;2022-08-21T09:02:18;94211.59;;;26.39;70.30
12101;BME280;6113;42.678;23.334;2022-08-21T09:04:47;94212.25;;;26.64;69.73
12101;BME280;6113;42.678;23.334;2022-08-21T09:07:22;94187.56;;;26.70;68.42
12101;BME280;6113;42.678;23.334;2022-08-21T09:10:03;94203.31;;;26.92;67.07
12101;BME280;6113;42.678;23.334;2022-08-21T09:12:51;94174.25;;;26.78;68.07
12101;BME280;6113;42.678;23.334;2022-08-21T09:15:26;94201.94;;;27.00;66.47
12101;BME280;6113;42.678;23.334;2022-08-21T09:18:17;94192.75;;;27.00;65.66
12101;BME280;6113;42.678;23.334;2022-08-21T09:20:55;94191.41;;;26.91;66.67
12101;BME280;6113;42.678;23.334;2022-08-21T09:23:34;94186.38;;;26.90;66.60
12101;BME280;6113;42.678;23.334;2022-08-21T09:26:07;94175.53;;;26.94;66.98
12101;BME280;6113;42.678;23.334;2022-08-21T09:28:39;94178.16;;;26.92;66.09
12101;BME280;6113;42.678;23.334;2022-08-21T09:31:08;94181.66;;;26.66;66.28
12101;BME280;6113;42.678;23.334;2022-08-21T09:33:37;94159.00;;;26.62;67.47
12101;BME280;6113;42.678;23.334;2022-08-21T09:36:04;94180.34;;;27.10;67.37
12101;BME280;6113;42.678;23.334;2022-08-21T09:38:33;94184.28;;;27.33;67.31
12101;BME280;6113;42.678;23.334;2022-08-21T09:41:02;94184.69;;;27.56;65.74
12101;BME280;6113;42.678;23.334;2022-08-21T09:43:30;94164.66;;;27.50;63.74
12101;BME280;6113;42.678;23.334;2022-08-21T09:46:11;94180.13;;;27.61;63.77
12101;BME280;6113;42.678;23.334;2022-08-21T09:48:43;94169.28;;;27.65;63.41
12101;BME280;6113;42.678;23.334;2022-08-21T09:51:13;94176.78;;;27.62;62.68
12101;BME280;6113;42.678;23.334;2022-08-21T09:53:51;94178.16;;;27.44;62.26
12101;BME280;6113;42.678;23.334;2022-08-21T09:56:26;94161.31;;;27.25;62.39
12101;BME280;6113;42.678;23.334;2022-08-21T09:59:16;94179.22;;;27.22;63.15
12101;BME280;6113;42.678;23.334;2022-08-21T10:01:46;94175.66;;;27.12;63.67
12101;BME280;6113;42.678;23.334;2022-08-21T10:04:15;94171.31;;;27.02;63.96
12101;BME280;6113;42.678;23.334;2022-08-21T10:06:45;94172.72;;;26.94;64.53
12101;BME280;6113;42.678;23.334;2022-08-21T10:09:14;94161.81;;;26.88;65.39
12101;BME280;6113;42.678;23.334;2022-08-21T10:11:49;94159.13;;;26.81;65.52
12101;BME280;6113;42.678;23.334;2022-08-21T10:14:32;94161.75;;;26.79;65.39
12101;BME280;6113;42.678;23.334;2022-08-21T10:17:09;94154.88;;;26.80;65.19
12101;BME280;6113;42.678;23.334;2022-08-21T10:19:45;94143.47;;;26.68;65.52
12101;BME280;6113;42.678;23.334;2022-08-21T10:22:25;94157.91;;;26.74;66.11
12101;BME280;6113;42.678;23.334;2022-08-21T10:25:04;94148.53;;;26.79;66.08
12101;BME280;6113;42.678;23.334;2022-08-21T10:27:37;94130.13;;;26.76;65.93
12101;BME280;6113;42.678;23.334;2022-08-21T10:30:09;94139.19;;;26.94;65.47
12101;BME280;6113;42.678;23.334;2022-08-21T10:32:50;94124.69;;;26.78;64.85
12101;BME280;6113;42.678;23.334;2022-08-21T10:35:25;94144.78;;;26.94;65.75
12101;BME280;6113;42.678;23.334;2022-08-21T10:38:17;94148.53;;;27.06;65.82
12101;BME280;6113;42.678;23.334;2022-08-21T10:40:58;94136.19;;;27.44;64.55
12101;BME280;6113;42.678;23.334;2022-08-21T10:43:34;94136.03;;;27.78;64.40
12101;BME280;6113;42.678;23.334;2022-08-21T10:46:10;94131.50;;;28.11;62.76
12101;BME280;6113;42.678;23.334;2022-08-21T10:48:54;94130.06;;;28.38;62.08
12101;BME280;6113;42.678;23.334;2022-08-21T10:51:28;94135.06;;;28.40;59.87
12101;BME280;6113;42.678;23.334;2022-08-21T10:54:03;94121.06;;;28.49;59.86
12101;BME280;6113;42.678;23.334;2022-08-21T10:56:34;94115.72;;;28.72;60.09
12101;BME280;6113;42.678;23.334;2022-08-21T10:59:20;94109.78;;;28.96;59.01
12101;BME280;6113;42.678;23.334;2022-08-21T11:01:59;94099.91;;;28.95;57.97
12101;BME280;6113;42.678;23.334;2022-08-21T11:04:32;94102.22;;;29.08;57.61
12101;BME280;6113;42.678;23.334;2022-08-21T11:07:06;94106.28;;;29.26;58.06
12101;BME280;6113;42.678;23.334;2022-08-21T11:09:37;94103.56;;;29.47;57.63
12101;BME280;6113;42.678;23.334;2022-08-21T11:12:19;94087.69;;;29.61;55.79
12101;BME280;6113;42.678;23.334;2022-08-21T11:14:56;94091.28;;;29.73;55.48
12101;BME280;6113;42.678;23.334;2022-08-21T11:17:31;94080.41;;;29.88;56.03
12101;BME280;6113;42.678;23.334;2022-08-21T11:20:03;94023.13;;;29.61;55.39
12101;BME280;6113;42.678;23.334;2022-08-21T11:22:39;94062.31;;;30.01;55.88
12101;BME280;6113;42.678;23.334;2022-08-21T11:25:14;94081.28;;;30.12;54.50
12101;BME280;6113;42.678;23.334;2022-08-21T11:27:45;94074.47;;;30.15;53.02
12101;BME280;6113;42.678;23.334;2022-08-21T11:30:13;94071.47;;;30.01;52.82
12101;BME280;6113;42.678;23.334;2022-08-21T11:33:05;94074.88;;;30.00;53.70
12101;BME280;6113;42.678;23.334;2022-08-21T11:35:39;94061.22;;;29.85;54.04
12101;BME280;6113;42.678;23.334;2022-08-21T11:38:21;94077.22;;;30.03;54.66
12101;BME280;6113;42.678;23.334;2022-08-21T11:40:58;94057.75;;;29.96;52.70
12101;BME280;6113;42.678;23.334;2022-08-21T11:43:36;94053.75;;;29.78;53.49
12101;BME280;6113;42.678;23.334;2022-08-21T11:46:12;94067.25;;;29.70;52.79
12101;BME280;6113;42.678;23.334;2022-08-21T11:48:48;94084.13;;;29.60;53.48
12101;BME280;6113;42.678;23.334;2022-08-21T11:51:21;94080.25;;;29.35;53.75
12101;BME280;6113;42.678;23.334;2022-08-21T11:53:56;94076.75;;;29.25;54.27
12101;BME280;6113;42.678;23.334;2022-08-21T11:56:27;94072.84;;;29.09;54.91
12101;BME280;6113;42.678;23.334;2022-08-21T11:59:02;94077.31;;;28.93;55.69
12101;BME280;6113;42.678;23.334;2022-08-21T12:01:34;94068.50;;;28.78;56.09
12101;BME280;6113;42.678;23.334;2022-08-21T12:04:06;94068.09;;;28.63;57.12
12101;BME280;6113;42.678;23.334;2022-08-21T12:06:37;94064.59;;;28.53;58.54
12101;BME280;6113;42.678;23.334;2022-08-21T12:09:08;94061.66;;;28.41;58.07
12101;BME280;6113;42.678;23.334;2022-08-21T12:11:47;94055.50;;;28.33;58.46
12101;BME280;6113;42.678;23.334;2022-08-21T12:14:15;94057.72;;;28.25;57.58
12101;BME280;6113;42.678;23.334;2022-08-21T12:16:44;94055.63;;;28.16;57.20
12101;BME280;6113;42.678;23.334;2022-08-21T12:19:14;94058.13;;;28.03;57.40
12101;BME280;6113;42.678;23.334;2022-08-21T12:21:58;94061.53;;;28.01;57.63
12101;BME280;6113;42.678;23.334;2022-08-21T12:24:36;94077.13;;;27.95;58.54
12101;BME280;6113;42.678;23.334;2022-08-21T12:27:18;94070.22;;;27.87;58.88
12101;BME280;6113;42.678;23.334;2022-08-21T12:29:48;94078.91;;;27.81;59.08
12101;BME280;6113;42.678;23.334;2022-08-21T12:32:26;94095.22;;;27.75;58.70
12101;BME280;6113;42.678;23.334;2022-08-21T12:34:57;94077.81;;;27.67;58.23
12101;BME280;6113;42.678;23.334;2022-08-21T12:37:39;94077.38;;;27.61;58.56
12101;BME280;6113;42.678;23.334;2022-08-21T12:40:29;94054.97;;;27.52;59.09
12101;BME280;6113;42.678;23.334;2022-08-21T12:42:59;94069.56;;;27.50;58.68
12101;BME280;6113;42.678;23.334;2022-08-21T12:45:29;94061.56;;;27.37;58.28
12101;BME280;6113;42.678;23.334;2022-08-21T12:48:01;94057.75;;;27.42;59.06
12101;BME280;6113;42.678;23.334;2022-08-21T12:50:33;94036.38;;;27.28;59.80
12101;BME280;6113;42.678;23.334;2022-08-21T12:53:05;94061.44;;;27.35;59.52
12101;BME280;6113;42.678;23.334;2022-08-21T12:55:40;94058.47;;;27.33;59.72
12101;BME280;6113;42.678;23.334;2022-08-21T12:58:16;94065.66;;;27.27;59.58
12101;BME280;6113;42.678;23.334;2022-08-21T13:00:48;94060.34;;;27.21;59.47
12101;BME280;6113;42.678;23.334;2022-08-21T13:03:15;94060.03;;;27.17;59.50
12101;BME280;6113;42.678;23.334;2022-08-21T13:05:43;94061.63;;;27.11;59.92
12101;BME280;6113;42.678;23.334;2022-08-21T13:08:12;94062.22;;;27.10;60.09
12101;BME280;6113;42.678;23.334;2022-08-21T13:10:41;94053.38;;;27.04;60.42
12101;BME280;6113;42.678;23.334;2022-08-21T13:13:14;94052.03;;;27.05;61.25